createdAt,value
2018-03-04T00:01:02.223Z,13.07
2018-03-04T00:03:37.492Z,18.15
2018-03-04T00:06:11.689Z,16.03
2018-03-04T00:08:46.795Z,14.93
2018-03-04T00:11:21.800Z,17.73
2018-03-04T00:13:57.291Z,15.27
2018-03-04T00:16:32.035Z,15.67
2018-03-04T00:19:07.588Z,16.40
2018-03-04T00:21:42.688Z,15.37
2018-03-04T00:24:17.052Z,17.20
2018-03-04T00:26:52.299Z,17.10
2018-03-04T00:29:27.036Z,19.00
2018-03-04T00:32:02.745Z,18.80
2018-03-04T00:34:37.826Z,13.10
2018-03-04T00:37:12.887Z,11.87
2018-03-04T00:39:48.057Z,14.83
2018-03-04T00:42:22.879Z,16.30
2018-03-04T00:44:58.491Z,14.07
2018-03-04T00:47:33.560Z,15.97
2018-03-04T00:50:08.738Z,16.80
2018-03-04T00:52:43.834Z,14.53
2018-03-04T00:55:19.195Z,18.97
2018-03-04T00:57:54.237Z,16.23
2018-03-04T01:00:28.823Z,14.57
2018-03-04T01:03:03.812Z,17.20
2018-03-04T01:05:38.852Z,14.30
2018-03-04T01:08:14.182Z,18.17
2018-03-04T01:10:48.520Z,13.50
2018-03-04T01:13:23.667Z,18.57
2018-03-04T01:15:59.091Z,18.47
2018-03-04T01:18:35.107Z,12.53
2018-03-04T01:21:10.276Z,17.60
2018-03-04T01:23:45.219Z,12.20
2018-03-04T01:26:20.015Z,17.93
2018-03-04T01:28:55.123Z,13.93
2018-03-04T01:31:30.408Z,15.53
2018-03-04T01:34:05.696Z,13.68
2018-03-04T01:36:40.975Z,20.70
2018-03-04T01:39:15.396Z,21.02
2018-03-04T01:41:52.606Z,17.52
2018-03-04T01:44:27.590Z,12.17
2018-03-04T01:47:02.847Z,20.15
2018-03-04T01:49:37.991Z,20.40
2018-03-04T01:52:12.901Z,19.35
2018-03-04T01:54:48.021Z,19.00
2018-03-04T01:57:23.211Z,17.58
2018-03-04T01:59:57.857Z,12.10
2018-03-04T02:02:32.536Z,18.20
2018-03-04T02:05:07.868Z,18.10
2018-03-04T02:07:42.859Z,15.03
2018-03-04T02:10:18.047Z,20.90
2018-03-04T02:12:53.307Z,18.10
2018-03-04T02:15:28.371Z,16.90
2018-03-04T02:18:03.968Z,19.27
2018-03-04T02:20:39.286Z,15.77
2018-03-04T02:23:14.235Z,20.87
2018-03-04T02:25:49.412Z,10.60
2018-03-04T02:28:24.000Z,19.17
2018-03-04T02:30:59.065Z,8.65
2018-03-04T02:33:34.224Z,15.40
2018-03-04T02:36:09.075Z,19.43
2018-03-04T02:38:44.237Z,19.30
2018-03-04T02:41:19.920Z,21.60
2018-03-04T02:43:54.468Z,20.70
2018-03-04T02:46:29.956Z,17.75
2018-03-04T02:49:05.023Z,20.53
2018-03-04T02:51:40.061Z,13.53
2018-03-04T02:54:15.109Z,21.90
2018-03-04T02:56:51.379Z,16.02
2018-03-04T02:59:26.357Z,21.20
2018-03-04T03:02:01.113Z,18.80
2018-03-04T03:04:36.364Z,21.67
2018-03-04T03:07:11.638Z,15.37
2018-03-04T03:09:46.920Z,22.60
2018-03-04T03:12:22.125Z,19.17
2018-03-04T03:14:57.072Z,20.43
2018-03-04T03:17:32.275Z,20.57
2018-03-04T03:20:07.476Z,19.50
2018-03-04T03:22:42.347Z,15.67
2018-03-04T03:25:17.417Z,21.53
2018-03-04T03:27:52.979Z,19.45
2018-03-04T03:30:27.649Z,13.60
2018-03-04T03:33:02.696Z,17.23
2018-03-04T03:35:37.564Z,17.27
2018-03-04T03:38:12.511Z,17.47
2018-03-04T03:40:47.279Z,18.98
2018-03-04T03:43:22.235Z,15.03
2018-03-04T03:45:57.531Z,19.87
2018-03-04T03:48:32.583Z,19.53
2018-03-04T03:51:07.343Z,20.87
2018-03-04T03:53:42.419Z,16.67
2018-03-04T03:56:17.431Z,21.40
2018-03-04T03:58:52.379Z,10.30
2018-03-04T04:01:27.363Z,11.17
2018-03-04T04:04:02.644Z,13.90
2018-03-04T04:06:37.643Z,21.53
2018-03-04T04:09:12.624Z,20.17
2018-03-04T04:11:47.904Z,17.80
2018-03-04T04:14:23.062Z,20.00
2018-03-04T04:16:58.325Z,23.95
2018-03-04T04:19:32.995Z,15.73
2018-03-04T04:22:08.531Z,17.33
2018-03-04T04:24:43.252Z,17.47
2018-03-04T04:27:18.326Z,21.33
2018-03-04T04:29:53.212Z,18.70
2018-03-04T04:32:29.284Z,23.00
2018-03-04T04:35:03.872Z,23.07
2018-03-04T04:37:38.343Z,18.67
2018-03-04T04:40:13.591Z,19.63
2018-03-04T04:42:48.299Z,22.40
2018-03-04T04:45:23.501Z,7.27
2018-03-04T04:47:57.849Z,20.17
2018-03-04T04:50:33.409Z,21.10
2018-03-04T04:53:08.464Z,22.35
2018-03-04T04:55:43.599Z,22.03
2018-03-04T04:58:18.991Z,17.63
2018-03-04T05:00:53.700Z,18.97
2018-03-04T05:03:28.551Z,20.57
2018-03-04T05:06:04.063Z,6.97
2018-03-04T05:08:38.635Z,18.57
2018-03-04T05:11:13.903Z,16.00
2018-03-04T05:13:49.348Z,17.40
2018-03-04T05:16:24.423Z,13.23
2018-03-04T05:18:59.702Z,16.87
2018-03-04T05:21:35.419Z,23.70
2018-03-04T05:24:10.407Z,14.90
2018-03-04T05:26:45.071Z,17.67
2018-03-04T05:29:20.036Z,21.10
2018-03-04T05:31:54.908Z,18.03
2018-03-04T05:34:30.304Z,23.15
2018-03-04T05:37:05.688Z,22.00
2018-03-04T05:39:40.448Z,24.47
2018-03-04T05:42:15.439Z,22.60
2018-03-04T05:44:49.831Z,22.77
2018-03-04T05:47:24.609Z,13.50
2018-03-04T05:49:59.834Z,24.33
2018-03-04T05:52:34.599Z,25.03
2018-03-04T05:55:09.563Z,20.50
2018-03-04T05:57:44.635Z,22.57
2018-03-04T06:00:19.003Z,20.23
2018-03-04T06:02:53.973Z,15.97
2018-03-04T06:05:29.124Z,20.90
2018-03-04T06:08:05.871Z,20.97
2018-03-04T06:10:40.735Z,24.80
2018-03-04T06:13:15.984Z,21.37
2018-03-04T06:15:51.825Z,20.85
2018-03-04T06:18:27.520Z,23.27
2018-03-04T06:21:02.761Z,18.50
2018-03-04T06:23:37.856Z,23.50
2018-03-04T06:26:12.855Z,19.40
2018-03-04T06:28:47.702Z,18.03
2018-03-04T06:31:22.788Z,14.97
2018-03-04T06:33:57.967Z,25.43
2018-03-04T06:36:32.739Z,24.87
2018-03-04T06:39:08.271Z,22.77
2018-03-04T06:41:43.000Z,26.00
2018-03-04T06:44:17.783Z,28.23
2018-03-04T06:46:52.862Z,21.27
2018-03-04T06:49:27.738Z,27.00
2018-03-04T06:52:02.603Z,18.35
2018-03-04T06:54:37.647Z,26.40
2018-03-04T06:57:12.631Z,25.07
2018-03-04T06:59:47.790Z,25.93
2018-03-04T07:02:22.807Z,23.10
2018-03-04T07:04:57.996Z,22.47
2018-03-04T07:07:32.735Z,14.53
2018-03-04T07:10:08.075Z,22.83
2018-03-04T07:12:42.925Z,26.20
2018-03-04T07:15:18.678Z,16.30
2018-03-04T07:17:53.954Z,24.00
2018-03-04T07:20:28.919Z,24.60
2018-03-04T07:23:04.535Z,26.60
2018-03-04T07:25:39.933Z,28.00
2018-03-04T07:28:14.932Z,29.17
2018-03-04T07:30:50.041Z,25.90
2018-03-04T07:33:25.692Z,17.00
2018-03-04T07:36:01.037Z,21.17
2018-03-04T07:38:36.401Z,23.73
2018-03-04T07:41:11.527Z,21.63
2018-03-04T07:43:46.840Z,27.90
2018-03-04T07:46:21.834Z,14.50
2018-03-04T07:48:56.740Z,20.03
2018-03-04T07:51:31.604Z,16.37
2018-03-04T07:54:06.418Z,17.77
2018-03-04T07:56:41.292Z,22.23
2018-03-04T07:59:16.339Z,31.13
2018-03-04T08:01:52.324Z,23.52
2018-03-04T08:04:27.288Z,26.90
2018-03-04T08:07:02.248Z,28.90
2018-03-04T08:09:37.711Z,24.55
2018-03-04T08:12:12.869Z,30.87
2018-03-04T08:14:48.015Z,30.73
2018-03-04T08:17:22.991Z,28.37
2018-03-04T08:19:57.438Z,24.47
2018-03-04T08:22:31.903Z,30.93
2018-03-04T08:25:18.112Z,24.80
2018-03-04T08:28:04.287Z,25.23
2018-03-04T08:30:38.907Z,29.50
2018-03-04T08:33:14.183Z,28.83
2018-03-04T08:35:49.233Z,26.30
2018-03-04T08:38:24.843Z,30.43
2018-03-04T08:40:59.307Z,27.00
2018-03-04T08:43:34.379Z,32.03
2018-03-04T08:46:09.679Z,20.80
2018-03-04T08:48:45.036Z,36.63
2018-03-04T08:51:19.908Z,31.90
2018-03-04T08:53:55.215Z,28.08
2018-03-04T08:56:30.275Z,27.90
2018-03-04T08:59:05.456Z,16.63
2018-03-04T09:01:40.906Z,31.85
2018-03-04T09:04:15.937Z,24.23
2018-03-04T09:06:52.258Z,31.20
2018-03-04T09:09:27.966Z,33.00
2018-03-04T09:12:02.516Z,32.78
2018-03-04T09:14:38.112Z,31.03
2018-03-04T09:17:13.134Z,31.70
2018-03-04T09:19:48.129Z,32.07
2018-03-04T09:22:23.255Z,34.17
2018-03-04T09:24:58.170Z,33.45
2018-03-04T09:27:33.343Z,34.23
2018-03-04T09:30:08.259Z,31.25
2018-03-04T09:32:43.232Z,34.03
2018-03-04T09:35:18.039Z,33.27
2018-03-04T09:37:53.694Z,32.10
2018-03-04T09:40:28.347Z,20.67
2018-03-04T09:43:03.980Z,29.37
2018-03-04T09:45:39.006Z,34.45
2018-03-04T09:48:14.020Z,33.30
2018-03-04T09:50:49.368Z,30.20
2018-03-04T09:53:24.366Z,35.60
2018-03-04T09:55:59.366Z,35.03
2018-03-04T09:58:34.214Z,34.30
2018-03-04T10:01:09.132Z,32.90
2018-03-04T10:03:44.155Z,32.50
2018-03-04T10:06:19.139Z,37.33
2018-03-04T10:08:54.728Z,32.50
2018-03-04T10:11:29.875Z,36.13
2018-03-04T10:14:05.377Z,31.77
2018-03-04T10:16:40.331Z,31.33
2018-03-04T10:19:15.460Z,34.13
2018-03-04T10:21:50.539Z,32.70
2018-03-04T10:24:25.543Z,36.20
2018-03-04T10:27:00.610Z,36.88
2018-03-04T10:29:35.679Z,38.10
2018-03-04T10:32:10.724Z,37.80
2018-03-04T10:34:45.597Z,39.03
2018-03-04T10:37:20.643Z,34.00
2018-03-04T10:39:55.536Z,32.57
2018-03-04T10:42:31.248Z,38.63
2018-03-04T10:45:05.592Z,33.75
2018-03-04T10:47:40.820Z,37.40
2018-03-04T10:50:16.031Z,29.07
2018-03-04T10:52:51.207Z,34.57
2018-03-04T10:55:26.150Z,35.85
2018-03-04T10:58:00.631Z,35.25
2018-03-04T11:00:41.405Z,38.72
2018-03-04T11:03:16.114Z,33.58
2018-03-04T11:05:52.343Z,32.63
2018-03-04T11:08:27.423Z,37.73
2018-03-04T11:11:02.489Z,39.63
2018-03-04T11:13:37.746Z,33.80
2018-03-04T11:16:13.508Z,39.57
2018-03-04T11:18:48.354Z,34.67
2018-03-04T11:21:23.533Z,36.43
2018-03-04T11:23:58.274Z,26.37
2018-03-04T11:26:33.248Z,38.07
2018-03-04T11:29:08.628Z,40.70
2018-03-04T11:31:43.495Z,39.00
2018-03-04T11:34:18.764Z,34.40
2018-03-04T11:36:53.414Z,37.30
2018-03-04T11:39:28.385Z,31.13
2018-03-04T11:42:03.539Z,37.00
2018-03-04T11:44:37.873Z,36.93
2018-03-04T11:47:12.699Z,32.90
2018-03-04T11:49:47.351Z,32.10
2018-03-04T11:52:22.162Z,29.23
2018-03-04T11:54:58.365Z,36.88
2018-03-04T11:57:33.538Z,38.63
2018-03-04T12:00:08.703Z,32.17
2018-03-04T12:02:43.878Z,34.37
2018-03-04T12:05:18.694Z,39.57
2018-03-04T12:07:53.706Z,37.30
2018-03-04T12:10:28.752Z,38.57
2018-03-04T12:13:03.730Z,42.17
2018-03-04T12:15:38.907Z,36.67
2018-03-04T12:18:13.849Z,40.20
2018-03-04T12:20:48.982Z,40.00
2018-03-04T12:23:24.400Z,38.38
2018-03-04T12:25:59.647Z,34.93
2018-03-04T12:28:34.520Z,40.10
2018-03-04T12:31:09.486Z,38.17
2018-03-04T12:33:44.652Z,29.60
2018-03-04T12:36:19.691Z,37.60
2018-03-04T12:38:54.745Z,40.90
2018-03-04T12:41:29.691Z,26.87
2018-03-04T12:44:04.874Z,39.97
2018-03-04T12:46:39.700Z,37.10
2018-03-04T12:49:14.344Z,37.97
2018-03-04T12:51:49.444Z,39.73
2018-03-04T12:54:24.450Z,34.27
2018-03-04T12:56:59.831Z,36.33
2018-03-04T12:59:35.239Z,39.43
2018-03-04T13:02:10.072Z,40.77
2018-03-04T13:04:45.459Z,37.53
2018-03-04T13:07:20.070Z,40.47
2018-03-04T13:09:54.799Z,38.53
2018-03-04T13:12:29.860Z,40.27
2018-03-04T13:15:04.992Z,42.35
2018-03-04T13:17:40.111Z,42.90
2018-03-04T13:20:15.220Z,41.17
2018-03-04T13:22:51.196Z,34.63
2018-03-04T13:25:26.520Z,41.90
2018-03-04T13:28:01.871Z,40.58
2018-03-04T13:30:36.564Z,42.23
2018-03-04T13:33:11.544Z,40.57
2018-03-04T13:35:46.146Z,37.30
2018-03-04T13:38:21.067Z,30.97
2018-03-04T13:40:56.046Z,24.80
2018-03-04T13:43:30.999Z,40.03
2018-03-04T13:46:06.653Z,39.38
2018-03-04T13:48:40.974Z,33.70
2018-03-04T13:51:16.147Z,41.83
2018-03-04T13:53:53.024Z,34.70
2018-03-04T13:56:27.703Z,34.97
2018-03-04T13:59:02.740Z,34.87
2018-03-04T14:01:37.575Z,35.37
2018-03-04T14:04:13.891Z,38.53
2018-03-04T14:06:49.126Z,40.23
2018-03-04T14:09:23.859Z,34.90
2018-03-04T14:11:58.951Z,41.42
2018-03-04T14:14:33.970Z,36.63
2018-03-04T14:17:09.133Z,38.30
2018-03-04T14:19:44.592Z,37.97
2018-03-04T14:22:19.554Z,40.83
2018-03-04T14:24:54.983Z,37.78
2018-03-04T14:27:29.834Z,38.90
2018-03-04T14:30:04.343Z,39.22
2018-03-04T14:32:38.719Z,33.97
2018-03-04T14:35:14.043Z,32.10
2018-03-04T14:37:49.208Z,32.87
2018-03-04T14:40:24.713Z,28.73
2018-03-04T14:42:59.639Z,35.00
2018-03-04T14:45:35.071Z,35.30
2018-03-04T14:48:10.087Z,34.83
2018-03-04T14:50:45.153Z,37.43
2018-03-04T14:53:20.100Z,35.10
2018-03-04T14:55:55.171Z,34.27
2018-03-04T14:58:30.740Z,35.23
2018-03-04T15:01:06.070Z,35.90
2018-03-04T15:03:40.891Z,33.27
2018-03-04T15:06:15.904Z,35.60
2018-03-04T15:08:50.759Z,34.67
2018-03-04T15:11:25.792Z,32.70
2018-03-04T15:14:00.997Z,32.60
2018-03-04T15:16:35.789Z,35.30
2018-03-04T15:19:11.012Z,35.53
2018-03-04T15:21:46.617Z,34.77
2018-03-04T15:24:22.162Z,30.33
2018-03-04T15:26:57.264Z,32.50
2018-03-04T15:29:31.818Z,34.53
2018-03-04T15:32:06.936Z,36.00
2018-03-04T15:34:41.675Z,34.90
2018-03-04T15:37:16.920Z,37.03
2018-03-04T15:39:52.239Z,34.45
2018-03-04T15:42:26.844Z,36.20
2018-03-04T15:45:01.381Z,24.90
2018-03-04T15:47:36.827Z,37.13
2018-03-04T15:50:11.683Z,33.78
2018-03-04T15:52:47.312Z,36.17
2018-03-04T15:55:21.987Z,35.17
2018-03-04T15:57:57.049Z,35.60
2018-03-04T16:00:32.829Z,33.20
2018-03-04T16:03:08.065Z,34.67
2018-03-04T16:05:43.103Z,33.83
2018-03-04T16:08:18.333Z,31.57
2018-03-04T16:10:53.460Z,35.10
2018-03-04T16:13:28.520Z,34.13
2018-03-04T16:16:03.650Z,33.10
2018-03-04T16:18:39.049Z,32.73
2018-03-04T16:21:13.993Z,33.40
2018-03-04T16:23:48.504Z,34.90
2018-03-04T16:26:23.652Z,33.53
2018-03-04T16:28:59.204Z,32.03
2018-03-04T16:31:34.060Z,32.17
2018-03-04T16:34:09.235Z,34.10
2018-03-04T16:36:44.413Z,35.07
2018-03-04T16:39:19.936Z,32.70
2018-03-04T16:41:55.312Z,35.17
2018-03-04T16:44:30.560Z,35.47
2018-03-04T16:47:04.929Z,34.47
2018-03-04T16:49:40.135Z,33.10
2018-03-04T16:52:14.564Z,33.40
2018-03-04T16:54:50.984Z,33.77
2018-03-04T16:57:26.706Z,32.97
2018-03-04T17:00:01.380Z,33.97
2018-03-04T17:02:36.418Z,30.97
2018-03-04T17:05:11.920Z,30.25
2018-03-04T17:07:46.775Z,34.13
2018-03-04T17:10:22.085Z,33.97
2018-03-04T17:12:57.304Z,33.47
2018-03-04T17:15:32.459Z,32.60
2018-03-04T17:18:07.878Z,32.63
2018-03-04T17:20:42.512Z,35.33
2018-03-04T17:23:17.599Z,35.30
2018-03-04T17:25:53.496Z,35.88
2018-03-04T17:28:28.534Z,31.20
2018-03-04T17:31:03.955Z,35.45
2018-03-04T17:33:38.585Z,32.07
2018-03-04T17:36:14.196Z,33.60
2018-03-04T17:38:48.767Z,36.23
2018-03-04T17:41:23.907Z,32.10
2018-03-04T17:43:59.244Z,35.53
2018-03-04T17:46:34.116Z,34.63
2018-03-04T17:49:09.159Z,34.42
2018-03-04T17:51:44.128Z,35.63
2018-03-04T17:54:19.169Z,36.90
2018-03-04T17:56:53.532Z,33.80
2018-03-04T17:59:28.516Z,32.10
2018-03-04T18:02:03.564Z,32.37
2018-03-04T18:04:39.319Z,36.23
2018-03-04T18:07:14.662Z,33.23
2018-03-04T18:09:50.301Z,35.15
2018-03-04T18:12:25.270Z,37.43
2018-03-04T18:15:00.707Z,34.05
2018-03-04T18:17:35.683Z,34.23
2018-03-04T18:20:10.734Z,35.63
2018-03-04T18:22:45.816Z,34.30
2018-03-04T18:25:20.580Z,33.50
2018-03-04T18:27:55.483Z,35.57
2018-03-04T18:30:30.204Z,29.00
2018-03-04T18:33:05.582Z,33.88
2018-03-04T18:35:40.538Z,32.60
2018-03-04T18:38:15.635Z,32.60
2018-03-04T18:40:50.769Z,32.10
2018-03-04T18:43:25.709Z,35.30
2018-03-04T18:46:01.303Z,33.55
2018-03-04T18:48:36.839Z,32.03
2018-03-04T18:51:12.947Z,34.77
2018-03-04T18:53:47.971Z,35.57
2018-03-04T18:56:22.947Z,34.80
2018-03-04T18:58:58.296Z,36.15
2018-03-04T19:01:33.289Z,35.90
2018-03-04T19:04:08.623Z,36.07
2018-03-04T19:06:43.700Z,32.40
2018-03-04T19:09:18.654Z,35.40
2018-03-04T19:11:53.896Z,34.70
2018-03-04T19:14:28.944Z,33.90
2018-03-04T19:17:03.651Z,34.33
2018-03-04T19:19:38.908Z,34.67
2018-03-04T19:22:14.323Z,34.78
2018-03-04T19:24:49.496Z,33.40
2018-03-04T19:27:24.633Z,33.60
2018-03-04T19:29:59.648Z,32.85
2018-03-04T19:32:34.019Z,27.13
2018-03-04T19:35:08.854Z,33.20
2018-03-04T19:37:43.475Z,32.73
2018-03-04T19:40:18.775Z,32.23
2018-03-04T19:42:54.056Z,25.10
2018-03-04T19:45:29.803Z,34.47
2018-03-04T19:48:05.073Z,29.07
2018-03-04T19:50:40.735Z,33.63
2018-03-04T19:53:15.747Z,32.90
2018-03-04T19:55:50.808Z,31.60
2018-03-04T19:58:25.988Z,29.43
2018-03-04T20:01:01.443Z,32.37
2018-03-04T20:03:36.464Z,33.20
2018-03-04T20:06:11.725Z,31.87
2018-03-04T20:08:47.076Z,30.47
2018-03-04T20:11:21.741Z,33.60
2018-03-04T20:13:56.952Z,32.43
2018-03-04T20:16:32.376Z,33.15
2018-03-04T20:19:06.860Z,32.90
2018-03-04T20:21:41.346Z,30.73
2018-03-04T20:24:16.556Z,30.90
2018-03-04T20:26:51.680Z,31.70
2018-03-04T20:29:26.844Z,30.07
2018-03-04T20:32:01.969Z,33.53
2018-03-04T20:34:36.739Z,31.77
2018-03-04T20:37:11.918Z,32.00
2018-03-04T20:39:47.461Z,23.50
2018-03-04T20:42:22.494Z,31.12
2018-03-04T20:44:57.841Z,30.80
2018-03-04T20:47:32.675Z,31.37
2018-03-04T20:50:07.652Z,29.35
2018-03-04T20:52:42.764Z,30.83
2018-03-04T20:55:17.644Z,31.07
2018-03-04T20:57:53.954Z,30.23
2018-03-04T21:00:28.648Z,31.50
2018-03-04T21:03:03.996Z,31.42
2018-03-04T21:05:38.971Z,29.97
2018-03-04T21:08:13.964Z,33.20
2018-03-04T21:10:49.144Z,30.47
2018-03-04T21:13:24.102Z,29.90
2018-03-04T21:15:58.907Z,32.73
2018-03-04T21:18:34.467Z,32.60
2018-03-04T21:21:09.339Z,32.10
2018-03-04T21:23:44.336Z,31.83
2018-03-04T21:26:19.376Z,31.37
2018-03-04T21:28:54.282Z,32.90
2018-03-04T21:31:29.767Z,33.30
2018-03-04T21:34:05.200Z,32.50
2018-03-04T21:36:40.163Z,32.93
2018-03-04T21:39:15.615Z,29.08
2018-03-04T21:41:50.358Z,30.83
2018-03-04T21:44:25.266Z,30.70
2018-03-04T21:47:00.775Z,29.43
2018-03-04T21:49:35.637Z,30.42
2018-03-04T21:52:11.050Z,30.15
2018-03-04T21:54:46.845Z,30.35
2018-03-04T21:57:21.837Z,27.83
2018-03-04T21:59:57.000Z,30.57
2018-03-04T22:02:31.895Z,27.33
2018-03-04T22:05:06.887Z,32.55
2018-03-04T22:07:41.938Z,26.90
2018-03-04T22:10:16.891Z,29.50
2018-03-04T22:12:52.072Z,30.23
2018-03-04T22:15:27.054Z,28.87
2018-03-04T22:18:02.156Z,29.20
2018-03-04T22:20:37.325Z,28.50
2018-03-04T22:23:12.259Z,28.03
2018-03-04T22:25:47.339Z,29.20
2018-03-04T22:28:22.312Z,31.13
2018-03-04T22:30:57.552Z,30.30
2018-03-04T22:33:32.191Z,27.70
2018-03-04T22:36:07.257Z,28.37
2018-03-04T22:38:42.331Z,24.80
2018-03-04T22:41:17.859Z,24.58
2018-03-04T22:43:54.288Z,24.87
2018-03-04T22:46:29.262Z,24.80
2018-03-04T22:49:04.700Z,23.23
2018-03-04T22:51:39.494Z,26.40
2018-03-04T22:54:14.598Z,23.87
2018-03-04T22:56:50.068Z,25.13
2018-03-04T22:59:25.075Z,24.60
2018-03-04T23:02:00.277Z,23.87
2018-03-04T23:04:35.263Z,14.67
2018-03-04T23:07:10.511Z,24.50
2018-03-04T23:09:45.251Z,25.97
2018-03-04T23:12:20.450Z,27.17
2018-03-04T23:14:55.960Z,26.33
2018-03-04T23:17:30.933Z,25.08
2018-03-04T23:20:05.934Z,21.10
2018-03-04T23:22:41.193Z,25.87
2018-03-04T23:25:16.429Z,28.03
2018-03-04T23:27:51.509Z,25.07
2018-03-04T23:30:27.140Z,24.42
2018-03-04T23:33:02.055Z,24.77
2018-03-04T23:35:37.057Z,26.70
2018-03-04T23:38:12.479Z,17.90
2018-03-04T23:40:47.418Z,25.37
2018-03-04T23:43:22.417Z,26.43
2018-03-04T23:45:57.336Z,22.83
2018-03-04T23:48:32.597Z,27.03
2018-03-04T23:51:07.557Z,25.80
2018-03-04T23:53:42.641Z,24.60
2018-03-04T23:56:18.171Z,27.80
2018-03-04T23:58:55.133Z,24.58
